Time;durP1;ratioP1;P1;durP2;ratioP2;P2;SDS_P1;SDS_P2;PMS_P1;PMS_P2;Temp;Humidity;BMP_temperature;BMP_pressure;BME280_temperature;BME280_humidity;BME280_pressure;Samples;Min_cycle;Max_cycle;Signal;HPM_P1;HPM_P2
2023/01/26 00:00:08;;;;;;;8.60;7.80;;;18.70;36.20;;;;;;4955949;28;20623;-86
2023/01/26 00:02:33;;;;;;;7.57;6.87;;;18.70;36.20;;;;;;4957310;28;20228;-86
2023/01/26 00:04:59;;;;;;;7.23;6.53;;;18.70;36.10;;;;;;4959243;28;20422;-87
2023/01/26 00:07:24;;;;;;;7.33;6.73;;;18.70;36.10;;;;;;4940783;28;20255;-87
2023/01/26 00:09:50;;;;;;;7.80;7.10;;;18.70;36.20;;;;;;4936035;28;20585;-86
2023/01/26 00:12:15;;;;;;;6.20;5.70;;;18.70;36.10;;;;;;4946801;28;20249;-86
2023/01/26 00:14:50;;;;;;;6.70;6.10;;;18.70;36.90;;;;;;4948386;28;20895;-86
2023/01/26 00:17:24;;;;;;;6.27;5.67;;;18.70;36.20;;;;;;4939569;28;20216;-86
2023/01/26 00:19:51;;;;;;;8.00;6.63;;;18.70;36.20;;;;;;4933864;28;21266;-87
2023/01/26 00:22:16;;;;;;;7.60;7.00;;;18.70;36.10;;;;;;4945229;28;20459;-86
2023/01/26 00:24:42;;;;;;;7.43;6.80;;;18.70;36.10;;;;;;4943566;28;20996;-86
2023/01/26 00:27:08;;;;;;;7.50;6.80;;;18.70;36.10;;;;;;4950982;28;20296;-86
2023/01/26 00:29:33;;;;;;;6.90;6.30;;;18.70;36.20;;;;;;4952019;28;20225;-86
2023/01/26 00:31:59;;;;;;;7.20;6.50;;;18.70;36.10;;;;;;4928261;28;20230;-86
2023/01/26 00:34:24;;;;;;;6.87;6.30;;;18.70;36.20;;;;;;4942538;28;20247;-86
2023/01/26 00:36:50;;;;;;;9.63;7.97;;;18.70;36.10;;;;;;4959671;28;20260;-86
2023/01/26 00:39:15;;;;;;;6.60;6.00;;;18.70;36.10;;;;;;4952162;28;20244;-87
2023/01/26 00:44:25;;;;;;;7.40;6.80;;;18.70;36.10;;;;;;4941151;28;20257;-86
2023/01/26 00:46:50;;;;;;;7.27;6.60;;;18.70;36.00;;;;;;4945436;28;20455;-86
2023/01/26 00:49:16;;;;;;;7.53;6.83;;;18.70;36.00;;;;;;4928992;28;20284;-86
2023/01/26 00:51:41;;;;;;;7.07;6.53;;;18.70;36.00;;;;;;4937922;28;20245;-86
2023/01/26 00:54:07;;;;;;;7.93;7.13;;;18.70;36.00;;;;;;4932352;28;20255;-85
2023/01/26 00:56:33;;;;;;;7.70;7.10;;;18.70;36.00;;;;;;4945259;28;20240;-86
2023/01/26 00:58:58;;;;;;;7.07;6.37;;;18.70;36.00;;;;;;4952198;28;20241;-87
2023/01/26 01:01:24;;;;;;;7.90;7.10;;;18.70;36.00;;;;;;4941281;28;20796;-86
2023/01/26 01:03:50;;;;;;;7.50;6.73;;;18.70;36.00;;;;;;4956414;28;21466;-86
2023/01/26 01:06:16;;;;;;;6.90;6.30;;;18.70;36.00;;;;;;4957332;28;20696;-86
2023/01/26 01:08:42;;;;;;;6.70;6.20;;;18.70;36.00;;;;;;4954383;28;20532;-86
2023/01/26 01:11:10;;;;;;;8.10;6.87;;;18.70;36.00;;;;;;4955846;28;20463;-86
2023/01/26 01:13:36;;;;;;;6.73;6.13;;;18.70;36.00;;;;;;4954923;28;20336;-86
2023/01/26 01:16:10;;;;;;;7.67;6.97;;;18.70;36.00;;;;;;4952032;28;20429;-86
2023/01/26 01:18:36;;;;;;;6.67;6.17;;;18.70;36.00;;;;;;4951475;28;20544;-86
2023/01/26 01:21:10;;;;;;;6.57;6.07;;;18.70;36.00;;;;;;4956548;28;20433;-86
2023/01/26 01:23:36;;;;;;;7.17;6.47;;;18.70;36.00;;;;;;4960758;28;20538;-86
2023/01/26 01:26:03;;;;;;;7.07;6.50;;;18.70;36.00;;;;;;4944092;28;20451;-86
2023/01/26 01:28:29;;;;;;;6.83;6.23;;;18.70;36.00;;;;;;4962181;28;20443;-86
2023/01/26 01:30:55;;;;;;;7.73;7.03;;;18.70;36.00;;;;;;4949488;28;20454;-86
2023/01/26 01:33:22;;;;;;;7.23;6.53;;;18.70;36.00;;;;;;4947935;28;20455;-85
2023/01/26 01:36:02;;;;;;;6.90;6.30;;;18.70;36.00;;;;;;4957862;28;20748;-87
2023/01/26 01:38:28;;;;;;;7.80;7.10;;;18.70;36.00;;;;;;4943086;28;20470;-86
2023/01/26 01:40:54;;;;;;;7.47;6.77;;;18.70;36.00;;;;;;4958029;28;20436;-86
2023/01/26 01:43:21;;;;;;;7.53;6.93;;;18.70;36.00;;;;;;4962620;28;20332;-86
2023/01/26 01:45:48;;;;;;;7.23;6.53;;;18.70;36.00;;;;;;4959890;28;20441;-86
2023/01/26 01:48:24;;;;;;;7.13;6.53;;;18.70;36.00;;;;;;4959424;28;20961;-86
2023/01/26 01:50:53;;;;;;;8.37;7.57;;;18.70;35.90;;;;;;4960644;28;20486;-86
2023/01/26 01:53:23;;;;;;;7.37;6.67;;;18.70;36.00;;;;;;4961735;28;20951;-86
2023/01/26 01:55:53;;;;;;;6.90;6.30;;;18.70;36.00;;;;;;4961460;28;20466;-86
2023/01/26 01:58:19;;;;;;;7.00;6.40;;;18.70;36.00;;;;;;4946614;28;22721;-86
2023/01/26 02:00:45;;;;;;;9.00;7.00;;;18.70;36.00;;;;;;4949524;28;20475;-86
2023/01/26 02:03:11;;;;;;;7.13;6.53;;;18.70;36.00;;;;;;4959847;28;20438;-86
2023/01/26 02:05:53;;;;;;;7.47;6.87;;;18.70;36.00;;;;;;4960309;28;20991;-86
2023/01/26 02:08:22;;;;;;;6.87;6.33;;;18.70;36.00;;;;;;4961398;28;20602;-86
2023/01/26 02:10:51;;;;;;;6.57;5.97;;;18.70;36.00;;;;;;4959835;28;20885;-86
2023/01/26 02:13:18;;;;;;;7.50;6.80;;;18.70;36.00;;;;;;4958283;28;20466;-87
2023/01/26 02:15:44;;;;;;;7.93;7.23;;;18.70;36.00;;;;;;4955668;28;20528;-86
2023/01/26 02:18:10;;;;;;;7.67;6.97;;;18.70;36.00;;;;;;4960868;28;20449;-85
2023/01/26 02:21:10;;;;;;;6.50;6.00;;;18.70;36.00;;;;;;4959326;28;20267;-86
2023/01/26 02:24:05;;;;;;;7.23;6.63;;;18.70;36.00;;;;;;4956903;28;20954;-85
2023/01/26 02:26:35;;;;;;;6.27;5.87;;;18.70;36.00;;;;;;4935110;28;20505;-86
2023/01/26 02:29:03;;;;;;;7.47;6.87;;;18.70;36.00;;;;;;4945199;28;21260;-86
2023/01/26 02:31:29;;;;;;;7.13;6.60;;;18.70;36.00;;;;;;4924284;29;20465;-87
2023/01/26 02:33:55;;;;;;;6.67;6.07;;;18.70;36.00;;;;;;4949647;28;20982;-86
2023/01/26 02:36:26;;;;;;;7.43;6.83;;;18.60;35.90;;;;;;4962049;28;20458;-86
2023/01/26 02:39:16;;;;;;;6.77;6.07;;;18.70;36.00;;;;;;4960366;28;20244;-86
2023/01/26 02:44:28;;;;;;;6.57;5.97;;;18.70;36.00;;;;;;4952368;28;20464;-86
2023/01/26 02:46:53;;;;;;;7.27;6.57;;;18.60;35.90;;;;;;4916527;28;20880;-86
2023/01/26 02:52:04;;;;;;;7.30;6.70;;;18.70;36.00;;;;;;4959884;28;20711;-86
2023/01/26 02:57:14;;;;;;;7.17;6.57;;;18.70;36.00;;;;;;4957994;28;20440;-86
2023/01/26 02:59:39;;;;;;;6.27;5.77;;;18.60;35.80;;;;;;4961068;28;20449;-86
2023/01/26 03:02:05;;;;;;;7.43;6.80;;;18.70;36.00;;;;;;4952874;28;20851;-86
2023/01/26 03:04:31;;;;;;;7.30;6.50;;;18.60;35.90;;;;;;4947055;28;20307;-86
2023/01/26 03:06:56;;;;;;;7.00;6.43;;;18.60;35.80;;;;;;4952753;28;20244;-85
2023/01/26 03:09:22;;;;;;;7.40;6.70;;;18.60;35.80;;;;;;4940901;28;21140;-86
2023/01/26 03:11:47;;;;;;;7.20;6.60;;;18.60;35.80;;;;;;4958694;28;20228;-86
2023/01/26 03:14:14;;;;;;;6.77;6.27;;;18.60;35.80;;;;;;4959486;28;20630;-86
2023/01/26 03:16:40;;;;;;;6.90;6.30;;;18.60;35.90;;;;;;4959716;28;20236;-86
2023/01/26 03:27:27;;;;;;;7.07;6.43;;;18.60;35.80;;;;;;4953524;28;20542;-87
2023/01/26 03:29:56;;;;;;;6.70;6.10;;;18.60;35.80;;;;;;4948198;28;20494;-86
2023/01/26 03:32:23;;;;;;;7.27;6.30;;;18.60;35.80;;;;;;4954017;28;20437;-86
2023/01/26 03:34:48;;;;;;;6.30;5.70;;;18.60;35.80;;;;;;4951255;28;20501;-86
2023/01/26 03:37:14;;;;;;;6.83;6.20;;;18.60;35.80;;;;;;4959462;28;20541;-86
2023/01/26 03:56:23;;;;;;;6.60;6.07;;;18.60;35.70;;;;;;4954443;28;20894;-85
2023/01/26 03:58:51;;;;;;;6.30;5.80;;;18.60;35.70;;;;;;4958426;28;20493;-85
2023/01/26 04:01:26;;;;;;;6.30;5.80;;;18.60;35.80;;;;;;4953620;28;20471;-85
2023/01/26 04:09:23;;;;;;;6.60;6.03;;;18.60;35.70;;;;;;4946439;28;20501;-86
2023/01/26 04:11:48;;;;;;;6.83;6.23;;;18.60;35.70;;;;;;4936325;28;20433;-87
2023/01/26 04:22:29;;;;;;;6.33;5.70;;;18.60;35.70;;;;;;4939996;28;20966;-86
2023/01/26 04:24:58;;;;;;;6.33;5.73;;;18.60;35.70;;;;;;4943329;28;20442;-86
2023/01/26 04:27:23;;;;;;;6.10;5.60;;;18.60;35.80;;;;;;4957190;28;21749;-87
2023/01/26 04:29:49;;;;;;;6.73;6.17;;;18.60;35.70;;;;;;4958908;28;20864;-85
2023/01/26 04:32:14;;;;;;;6.50;5.67;;;18.70;35.80;;;;;;4956709;28;20252;-87
2023/01/26 04:34:40;;;;;;;7.27;6.53;;;18.60;35.70;;;;;;4961921;28;20310;-86
2023/01/26 04:37:07;;;;;;;6.60;6.00;;;18.70;35.80;;;;;;4963904;28;20225;-86
2023/01/26 04:39:33;;;;;;;7.10;6.40;;;18.70;35.80;;;;;;4959698;28;20376;-85
2023/01/26 04:41:58;;;;;;;6.77;6.00;;;18.70;35.80;;;;;;4960308;28;20470;-85
2023/01/26 04:44:24;;;;;;;6.63;6.03;;;18.70;35.80;;;;;;4962346;28;20259;-85
2023/01/26 04:46:49;;;;;;;6.70;6.10;;;18.70;35.70;;;;;;4958470;28;20587;-86
2023/01/26 04:49:15;;;;;;;6.13;5.73;;;18.70;35.70;;;;;;4942479;28;22118;-86
2023/01/26 04:51:40;;;;;;;6.90;6.20;;;18.70;35.80;;;;;;4953938;28;20237;-86
2023/01/26 04:54:06;;;;;;;6.17;5.57;;;18.70;35.70;;;;;;4957040;28;20216;-86
2023/01/26 04:56:33;;;;;;;7.00;6.30;;;18.70;35.70;;;;;;4946756;28;20665;-86
2023/01/26 04:59:03;;;;;;;6.87;6.27;;;18.70;35.70;;;;;;4936288;28;20241;-86
2023/01/26 05:01:28;;;;;;;6.13;5.63;;;18.70;35.70;;;;;;4938925;28;20782;-86
2023/01/26 05:03:54;;;;;;;7.03;6.43;;;18.70;35.60;;;;;;4954819;28;20439;-85
2023/01/26 05:06:19;;;;;;;7.40;6.70;;;18.70;35.70;;;;;;4953828;28;20916;-86
2023/01/26 05:08:45;;;;;;;6.90;6.30;;;18.70;35.60;;;;;;4946419;28;20229;-86
2023/01/26 05:11:11;;;;;;;6.73;6.03;;;18.70;35.60;;;;;;4949689;28;20225;-87
2023/01/26 05:13:37;;;;;;;5.83;5.43;;;18.80;35.60;;;;;;4955481;28;20235;-86
2023/01/26 05:16:04;;;;;;;6.17;5.57;;;18.80;35.60;;;;;;4941570;28;20265;-85
2023/01/26 05:18:29;;;;;;;6.47;5.93;;;18.80;35.50;;;;;;4941199;28;21603;-86
2023/01/26 05:20:55;;;;;;;6.90;6.30;;;18.90;35.60;;;;;;4954777;28;20944;-86
2023/01/26 05:23:21;;;;;;;5.77;5.27;;;18.90;35.60;;;;;;4953450;28;20232;-85
2023/01/26 05:25:47;;;;;;;5.57;5.17;;;18.90;35.60;;;;;;4947914;28;20229;-86
2023/01/26 05:28:12;;;;;;;5.80;5.40;;;18.90;35.60;;;;;;4942032;28;20471;-87
2023/01/26 05:30:38;;;;;;;6.40;5.90;;;18.90;35.60;;;;;;4936242;28;20225;-86
2023/01/26 05:33:05;;;;;;;7.00;6.40;;;18.90;35.60;;;;;;4941509;28;20305;-85
2023/01/26 05:35:31;;;;;;;7.23;6.30;;;18.90;35.60;;;;;;4960428;28;20255;-85
2023/01/26 05:37:57;;;;;;;6.87;6.20;;;18.90;35.60;;;;;;4938296;28;20533;-84
2023/01/26 05:40:23;;;;;;;6.00;5.50;;;18.90;35.60;;;;;;4960644;28;20236;-85
2023/01/26 05:42:49;;;;;;;6.87;6.20;;;18.90;35.60;;;;;;4938117;28;20226;-85
2023/01/26 05:45:15;;;;;;;6.63;5.97;;;18.90;35.60;;;;;;4946624;28;20449;-85
2023/01/26 05:47:43;;;;;;;7.53;6.83;;;18.90;35.60;;;;;;4937848;28;20232;-86
2023/01/26 05:50:10;;;;;;;7.70;7.03;;;18.90;35.60;;;;;;4960019;28;20716;-86
2023/01/26 05:52:35;;;;;;;6.30;5.80;;;18.90;35.60;;;;;;4957015;28;20486;-85
2023/01/26 05:55:02;;;;;;;7.10;6.30;;;18.90;35.60;;;;;;4958521;28;20454;-85
2023/01/26 05:57:28;;;;;;;6.50;5.67;;;18.90;35.60;;;;;;4960477;28;20820;-85
2023/01/26 05:59:53;;;;;;;5.97;5.43;;;18.80;35.50;;;;;;4961035;28;20825;-85
2023/01/26 06:02:19;;;;;;;6.87;6.13;;;18.90;35.70;;;;;;4957418;28;20799;-85
2023/01/26 06:04:44;;;;;;;6.93;6.23;;;18.90;35.70;;;;;;4959394;28;20665;-83
2023/01/26 06:07:12;;;;;;;6.33;5.73;;;18.90;35.60;;;;;;4956086;28;20624;-84
2023/01/26 06:09:38;;;;;;;7.40;6.70;;;18.90;35.60;;;;;;4954926;28;20837;-85
2023/01/26 06:12:04;;;;;;;6.00;5.40;;;18.90;35.70;;;;;;4956763;28;20827;-85
2023/01/26 06:14:30;;;;;;;6.20;5.70;;;18.90;35.70;;;;;;4958719;28;20224;-82
2023/01/26 06:16:55;;;;;;;6.20;5.70;;;18.90;35.70;;;;;;4958117;28;20461;-84
2023/01/26 06:19:21;;;;;;;7.00;6.37;;;18.90;35.70;;;;;;4956248;28;20255;-85
2023/01/26 06:21:47;;;;;;;7.07;6.47;;;18.80;35.50;;;;;;4954749;28;20312;-84
2023/01/26 06:24:12;;;;;;;9.53;7.30;;;18.90;35.70;;;;;;4955652;28;20252;-84
2023/01/26 06:26:38;;;;;;;14.63;10.30;;;18.90;35.70;;;;;;4957106;28;20221;-84
2023/01/26 06:29:04;;;;;;;12.77;8.63;;;18.90;35.60;;;;;;4959466;28;20237;-84
2023/01/26 06:31:29;;;;;;;7.20;6.50;;;18.90;35.50;;;;;;4963040;28;20221;-84
2023/01/26 06:33:55;;;;;;;6.63;5.97;;;18.90;35.40;;;;;;4959533;28;20267;-86
2023/01/26 06:36:21;;;;;;;6.03;5.53;;;18.90;35.40;;;;;;4956664;28;20296;-84
2023/01/26 06:38:49;;;;;;;5.73;5.33;;;18.90;35.50;;;;;;4960966;28;20499;-84
2023/01/26 06:41:15;;;;;;;6.47;5.87;;;18.90;35.50;;;;;;4954626;28;20498;-84
2023/01/26 06:43:44;;;;;;;6.20;5.73;;;18.90;35.50;;;;;;4955873;28;21399;-84
2023/01/26 06:46:10;;;;;;;7.17;6.47;;;18.90;35.60;;;;;;4960799;28;20451;-85
2023/01/26 06:48:37;;;;;;;5.50;5.10;;;18.90;35.60;;;;;;4942508;28;20482;-85
2023/01/26 06:51:42;;;;;;;6.53;5.93;;;18.90;35.60;;;;;;4957555;28;20704;-85
2023/01/26 06:54:09;;;;;;;6.33;5.60;;;18.90;35.60;;;;;;4941717;28;20469;-85
2023/01/26 06:56:35;;;;;;;6.73;6.03;;;18.90;35.70;;;;;;4941746;28;20445;-85
2023/01/26 06:59:00;;;;;;;5.63;5.23;;;18.90;35.70;;;;;;4936013;28;20475;-85
2023/01/26 07:01:26;;;;;;;5.23;4.83;;;18.90;35.70;;;;;;4952067;28;20236;-86
2023/01/26 07:03:53;;;;;;;5.70;5.20;;;18.90;35.70;;;;;;4957607;28;21218;-84
2023/01/26 07:06:19;;;;;;;5.80;5.40;;;18.80;35.60;;;;;;4956375;28;20229;-84
2023/01/26 07:08:44;;;;;;;5.80;5.37;;;18.80;35.60;;;;;;4959943;28;20454;-84
2023/01/26 07:11:11;;;;;;;5.93;5.43;;;18.80;35.70;;;;;;4957719;28;20256;-85
2023/01/26 07:13:38;;;;;;;5.60;5.10;;;18.80;35.80;;;;;;4956263;28;20227;-85
2023/01/26 07:16:07;;;;;;;6.43;5.50;;;18.80;35.70;;;;;;4955771;28;21188;-86
2023/01/26 07:18:32;;;;;;;5.73;5.23;;;18.80;35.70;;;;;;4937306;28;20813;-84
2023/01/26 07:21:17;;;;;;;5.60;5.10;;;18.80;35.70;;;;;;4957371;28;20462;-85
2023/01/26 07:23:43;;;;;;;5.83;5.30;;;18.80;35.70;;;;;;4955659;28;20225;-84
2023/01/26 07:26:08;;;;;;;5.87;5.27;;;18.80;35.70;;;;;;4941073;28;20443;-85
2023/01/26 07:28:34;;;;;;;5.20;4.70;;;18.80;35.70;;;;;;4950425;28;20240;-86
2023/01/26 07:31:00;;;;;;;6.13;5.63;;;18.80;36.50;;;;;;4959477;28;20225;-86
2023/01/26 07:33:28;;;;;;;6.10;5.60;;;18.80;35.70;;;;;;4960709;28;20303;-85
2023/01/26 07:35:55;;;;;;;4.80;4.40;;;18.80;35.70;;;;;;4955702;28;20473;-85
2023/01/26 07:38:21;;;;;;;6.13;5.63;;;18.80;35.80;;;;;;4940311;28;22339;-87
2023/01/26 07:40:46;;;;;;;5.10;4.67;;;18.80;35.70;;;;;;4942358;28;20546;-86
2023/01/26 07:43:13;;;;;;;5.33;4.93;;;18.80;35.70;;;;;;4947548;28;20225;-85
2023/01/26 07:45:39;;;;;;;4.87;4.57;;;18.80;35.70;;;;;;4954847;28;20268;-85
2023/01/26 07:48:05;;;;;;;5.77;5.27;;;18.80;35.70;;;;;;4963561;28;21007;-86
2023/01/26 07:50:31;;;;;;;6.17;5.67;;;18.80;35.70;;;;;;4962701;28;20251;-85
2023/01/26 07:52:59;;;;;;;5.00;4.60;;;18.80;35.70;;;;;;4943921;28;20291;-86
2023/01/26 07:55:25;;;;;;;5.33;4.83;;;18.80;35.70;;;;;;4964177;28;20467;-86
2023/01/26 07:57:51;;;;;;;4.93;4.60;;;18.80;35.60;;;;;;4962214;28;20932;-85
2023/01/26 08:00:17;;;;;;;5.30;4.90;;;18.80;35.60;;;;;;4962153;28;20246;-86
2023/01/26 08:02:43;;;;;;;5.57;5.17;;;18.80;35.70;;;;;;4961576;28;20229;-85
2023/01/26 08:05:08;;;;;;;5.03;4.53;;;18.80;35.60;;;;;;4963903;28;20486;-86
2023/01/26 08:07:34;;;;;;;5.10;4.80;;;18.80;35.70;;;;;;4961409;28;20233;-86
2023/01/26 08:10:00;;;;;;;5.30;4.90;;;18.80;35.70;;;;;;4964042;28;20673;-86
2023/01/26 08:12:26;;;;;;;5.47;5.07;;;18.80;35.70;;;;;;4959565;28;20240;-86
2023/01/26 08:14:51;;;;;;;5.23;4.77;;;18.80;35.70;;;;;;4948570;28;20588;-87
2023/01/26 08:17:17;;;;;;;4.97;4.57;;;18.80;35.70;;;;;;4944429;28;20232;-86
2023/01/26 08:19:46;;;;;;;4.73;4.43;;;18.80;35.70;;;;;;4957216;28;20245;-86
2023/01/26 08:22:12;;;;;;;5.33;4.93;;;18.80;35.70;;;;;;4958286;28;20443;-85
2023/01/26 08:24:37;;;;;;;5.00;4.60;;;18.80;35.70;;;;;;4952258;28;20529;-87
2023/01/26 08:27:03;;;;;;;5.30;4.90;;;18.80;35.70;;;;;;4943079;28;20595;-87
2023/01/26 08:29:28;;;;;;;5.23;4.73;;;18.80;35.70;;;;;;4947517;28;20233;-87
2023/01/26 08:31:54;;;;;;;5.47;5.07;;;18.80;35.70;;;;;;4948379;28;20233;-86
2023/01/26 08:34:21;;;;;;;5.43;5.03;;;18.80;35.80;;;;;;4952089;28;20221;-85
2023/01/26 08:36:47;;;;;;;5.83;5.33;;;18.80;35.70;;;;;;4945591;28;20229;-85
2023/01/26 08:39:12;;;;;;;4.70;4.30;;;18.80;35.70;;;;;;4947918;28;20478;-85
2023/01/26 08:41:38;;;;;;;4.43;4.03;;;18.80;35.60;;;;;;4944709;28;20230;-85
2023/01/26 08:44:04;;;;;;;4.53;4.23;;;18.80;35.70;;;;;;4961540;28;20305;-85
2023/01/26 08:46:30;;;;;;;5.00;4.57;;;18.80;35.70;;;;;;4955070;28;20690;-86
2023/01/26 08:48:56;;;;;;;4.70;4.40;;;18.80;35.70;;;;;;4954752;28;20517;-87
2023/01/26 08:51:21;;;;;;;4.60;4.30;;;18.80;35.60;;;;;;4951084;28;20251;-86
2023/01/26 08:53:47;;;;;;;4.83;4.53;;;18.80;35.70;;;;;;4957588;28;20243;-86
2023/01/26 08:56:13;;;;;;;4.97;4.67;;;18.80;35.60;;;;;;4962878;28;20627;-86
2023/01/26 08:58:38;;;;;;;5.03;4.70;;;18.80;35.60;;;;;;4960455;28;20597;-87
2023/01/26 09:01:10;;;;;;;4.27;3.97;;;18.80;35.60;;;;;;4941966;28;20217;-86
2023/01/26 09:03:36;;;;;;;4.87;4.47;;;18.80;35.60;;;;;;4944879;28;20229;-86
2023/01/26 09:06:03;;;;;;;5.27;4.97;;;18.80;35.70;;;;;;4956582;28;20823;-87
2023/01/26 09:08:30;;;;;;;5.13;4.73;;;18.80;35.70;;;;;;4955654;28;20235;-86
2023/01/26 09:10:56;;;;;;;5.60;5.20;;;18.80;35.70;;;;;;4961179;28;20500;-86
2023/01/26 09:13:22;;;;;;;5.00;4.60;;;18.80;35.60;;;;;;4948382;28;21006;-86
2023/01/26 09:15:47;;;;;;;5.07;4.77;;;18.80;35.70;;;;;;4950878;28;20448;-88
2023/01/26 09:18:13;;;;;;;5.37;4.97;;;18.80;35.70;;;;;;4929883;28;20232;-88
2023/01/26 09:20:38;;;;;;;4.70;4.40;;;18.80;35.60;;;;;;4959699;28;20228;-87
2023/01/26 09:23:04;;;;;;;5.37;4.87;;;18.80;35.60;;;;;;4956683;28;20232;-87
2023/01/26 09:25:30;;;;;;;5.10;4.60;;;18.80;35.60;;;;;;4950553;28;20232;-87
2023/01/26 09:27:55;;;;;;;4.43;4.07;;;18.80;35.70;;;;;;4961970;28;20233;-88
2023/01/26 09:30:23;;;;;;;5.13;4.80;;;18.80;35.60;;;;;;4962194;28;20228;-87
2023/01/26 09:32:49;;;;;;;4.60;4.30;;;18.70;35.60;;;;;;4943840;28;20788;-86
2023/01/26 09:35:15;;;;;;;4.53;4.23;;;18.70;35.60;;;;;;4960642;28;20434;-86
2023/01/26 09:37:43;;;;;;;4.73;4.40;;;18.80;35.60;;;;;;4961728;28;20441;-85
2023/01/26 09:40:19;;;;;;;4.13;3.87;;;18.70;35.60;;;;;;4944736;28;20275;-86
2023/01/26 09:43:00;;;;;;;4.80;4.40;;;18.70;35.60;;;;;;4962503;28;20483;-87
2023/01/26 09:45:32;;;;;;;5.67;5.27;;;18.70;35.60;;;;;;4949195;28;20441;-86
2023/01/26 09:48:17;;;;;;;4.20;3.90;;;18.70;35.60;;;;;;4944951;28;20434;-86
2023/01/26 09:51:07;;;;;;;4.80;4.50;;;18.70;35.60;;;;;;4960612;28;20545;-88
2023/01/26 09:53:36;;;;;;;5.47;4.97;;;18.70;36.50;;;;;;4941893;28;20447;-88
2023/01/26 09:56:01;;;;;;;5.70;5.20;;;18.70;35.70;;;;;;4945536;28;20434;-85
2023/01/26 09:58:34;;;;;;;4.53;4.20;;;18.70;35.60;;;;;;4936078;28;20525;-84
2023/01/26 10:01:01;;;;;;;4.20;3.90;;;18.70;35.60;;;;;;4939682;28;21201;-84
2023/01/26 10:03:40;;;;;;;5.03;4.63;;;18.70;35.60;;;;;;4954161;28;20456;-86
2023/01/26 10:06:20;;;;;;;5.53;5.00;;;18.70;35.60;;;;;;4931884;28;20799;-86
2023/01/26 10:08:46;;;;;;;5.10;4.70;;;18.70;35.70;;;;;;4954246;28;21013;-86
2023/01/26 10:11:24;;;;;;;8.20;5.10;;;18.70;35.60;;;;;;4939454;28;20465;-86
2023/01/26 10:14:01;;;;;;;7.60;4.57;;;18.70;35.60;;;;;;4951255;28;20558;-86
2023/01/26 10:16:27;;;;;;;4.40;4.10;;;18.70;35.60;;;;;;4941442;28;20467;-85
2023/01/26 10:19:03;;;;;;;5.13;4.73;;;18.70;35.60;;;;;;4948159;28;20446;-85
2023/01/26 10:21:42;;;;;;;5.07;4.67;;;18.70;35.50;;;;;;4949565;28;20648;-85
2023/01/26 10:24:10;;;;;;;5.17;4.63;;;18.70;35.60;;;;;;4948919;28;20462;-84
2023/01/26 10:26:36;;;;;;;5.10;4.70;;;18.70;35.60;;;;;;4944711;28;20483;-84
2023/01/26 10:29:03;;;;;;;4.60;4.30;;;18.70;35.50;;;;;;4944885;28;20479;-84
2023/01/26 10:31:31;;;;;;;5.50;5.10;;;18.70;35.60;;;;;;4945909;28;20707;-84
2023/01/26 10:34:22;;;;;;;5.00;4.60;;;18.70;35.60;;;;;;4960801;28;20468;-85
2023/01/26 10:36:47;;;;;;;4.30;4.00;;;18.70;35.60;;;;;;4960169;28;20470;-84
2023/01/26 10:39:16;;;;;;;4.70;4.40;;;18.70;35.50;;;;;;4959874;28;20457;-84
2023/01/26 10:41:59;;;;;;;4.27;3.97;;;18.70;35.50;;;;;;4959800;28;20284;-84
2023/01/26 10:44:33;;;;;;;4.30;4.00;;;18.70;35.50;;;;;;4950283;28;20723;-85
2023/01/26 10:47:10;;;;;;;4.90;4.60;;;18.70;35.50;;;;;;4950534;28;20935;-84
2023/01/26 10:49:35;;;;;;;4.43;4.13;;;18.70;35.50;;;;;;4939153;28;20526;-85
2023/01/26 10:52:24;;;;;;;5.43;5.13;;;18.70;35.50;;;;;;4941584;28;20957;-85
2023/01/26 10:55:09;;;;;;;9.50;4.50;;;18.70;35.50;;;;;;4951771;28;20233;-84
2023/01/26 10:57:40;;;;;;;4.67;4.37;;;18.70;35.50;;;;;;4939919;28;20467;-83
2023/01/26 11:00:21;;;;;;;4.70;4.40;;;18.70;35.60;;;;;;4952537;28;21237;-84
2023/01/26 11:02:57;;;;;;;4.53;4.20;;;18.70;35.50;;;;;;4938010;28;21017;-84
2023/01/26 11:05:24;;;;;;;4.93;4.63;;;18.70;35.60;;;;;;4956477;28;20461;-84
2023/01/26 11:07:57;;;;;;;4.93;4.63;;;18.70;35.50;;;;;;4947540;28;21041;-84
2023/01/26 11:10:24;;;;;;;4.20;3.90;;;18.70;35.60;;;;;;4929759;28;21100;-84
2023/01/26 11:13:04;;;;;;;4.80;4.50;;;18.70;35.60;;;;;;4957865;28;20461;-84
2023/01/26 11:15:35;;;;;;;4.27;4.00;;;18.70;35.50;;;;;;4947136;28;20473;-84
2023/01/26 11:18:36;;;;;;;4.10;3.80;;;18.70;35.50;;;;;;4937823;28;20486;-84
2023/01/26 11:21:18;;;;;;;4.30;4.00;;;18.70;35.50;;;;;;4957459;28;20601;-84
2023/01/26 11:24:11;;;;;;;4.70;4.40;;;18.70;35.50;;;;;;4958037;28;20482;-84
2023/01/26 11:26:36;;;;;;;4.70;4.30;;;18.70;35.60;;;;;;4946236;28;20434;-84
2023/01/26 11:29:16;;;;;;;4.20;3.90;;;18.70;35.60;;;;;;4958772;28;20526;-84
2023/01/26 11:32:04;;;;;;;4.43;4.13;;;18.70;35.60;;;;;;4948777;28;20241;-83
2023/01/26 11:34:47;;;;;;;3.77;3.57;;;18.70;35.60;;;;;;4938374;28;20475;-84
2023/01/26 11:37:12;;;;;;;4.07;3.77;;;18.70;35.60;;;;;;4958246;28;20453;-84
2023/01/26 11:39:54;;;;;;;3.90;3.70;;;18.70;35.60;;;;;;4953769;28;20457;-84
2023/01/26 11:42:28;;;;;;;4.17;3.87;;;18.70;35.60;;;;;;4958026;28;20216;-85
2023/01/26 11:45:16;;;;;;;4.53;4.23;;;18.60;35.50;;;;;;4958358;28;20462;-85
2023/01/26 11:48:06;;;;;;;4.97;4.67;;;18.60;35.50;;;;;;4961211;28;20471;-84
2023/01/26 11:51:10;;;;;;;3.50;3.30;;;18.60;35.50;;;;;;4942002;28;20489;-84
2023/01/26 11:53:56;;;;;;;4.40;4.20;;;18.60;35.60;;;;;;4958006;28;20429;-86
2023/01/26 11:56:39;;;;;;;4.43;4.13;;;18.60;35.60;;;;;;4960535;28;20928;-85
2023/01/26 11:59:15;;;;;;;4.20;3.90;;;18.60;35.60;;;;;;4941177;28;20449;-85
2023/01/26 12:01:49;;;;;;;4.53;4.13;;;18.60;35.60;;;;;;4943064;28;20447;-84
2023/01/26 12:04:20;;;;;;;4.10;3.77;;;18.60;35.60;;;;;;4951171;28;20440;-84
2023/01/26 12:07:19;;;;;;;4.10;3.80;;;18.60;35.70;;;;;;4956846;28;20437;-84
2023/01/26 12:09:49;;;;;;;3.97;3.67;;;18.60;35.60;;;;;;4941818;28;21067;-84
2023/01/26 12:12:54;;;;;;;4.00;3.77;;;18.60;35.60;;;;;;4960617;28;20989;-84
2023/01/26 12:15:35;;;;;;;4.00;3.80;;;18.60;35.60;;;;;;4949472;28;20466;-85
2023/01/26 12:18:09;;;;;;;3.73;3.50;;;18.60;35.60;;;;;;4941659;28;20972;-85
2023/01/26 12:20:52;;;;;;;4.40;4.10;;;18.60;35.60;;;;;;4950497;28;20520;-86
2023/01/26 12:23:40;;;;;;;4.10;3.80;;;18.60;35.60;;;;;;4943004;28;20438;-86
2023/01/26 12:26:30;;;;;;;4.27;3.97;;;18.60;35.60;;;;;;4945942;28;20477;-85
2023/01/26 12:29:11;;;;;;;3.70;3.50;;;18.60;35.50;;;;;;4944688;28;21138;-85
2023/01/26 12:31:48;;;;;;;3.47;3.23;;;18.60;35.60;;;;;;4957982;28;20556;-85
2023/01/26 12:34:14;;;;;;;3.67;3.47;;;18.60;35.60;;;;;;4963204;28;20461;-85
2023/01/26 12:37:11;;;;;;;3.80;3.60;;;18.60;35.60;;;;;;4963844;28;20589;-86
2023/01/26 12:40:02;;;;;;;3.20;3.00;;;18.60;35.60;;;;;;4963254;28;20712;-86
2023/01/26 12:42:55;;;;;;;3.30;3.10;;;18.60;35.60;;;;;;4961319;28;20457;-86
2023/01/26 12:45:28;;;;;;;3.30;3.10;;;18.60;35.60;;;;;;4942886;28;20430;-86
2023/01/26 12:48:17;;;;;;;3.03;2.83;;;18.60;35.60;;;;;;4960881;28;20457;-85
2023/01/26 12:50:46;;;;;;;3.30;3.10;;;18.60;35.70;;;;;;4942742;28;20453;-86
2023/01/26 12:53:31;;;;;;;2.93;2.73;;;18.60;35.70;;;;;;4966126;28;20430;-85
2023/01/26 12:56:40;;;;;;;3.80;3.50;;;18.60;35.70;;;;;;4956302;28;20418;-86
2023/01/26 12:59:16;;;;;;;3.93;3.63;;;18.60;35.60;;;;;;4941461;28;20445;-86
2023/01/26 13:01:42;;;;;;;3.60;3.40;;;18.60;35.70;;;;;;4964057;28;20425;-84
2023/01/26 13:04:11;;;;;;;2.80;2.60;;;18.60;35.60;;;;;;4964144;28;20455;-85
2023/01/26 13:06:37;;;;;;;3.40;3.20;;;18.60;35.70;;;;;;4962391;28;20438;-85
2023/01/26 13:09:22;;;;;;;2.43;2.30;;;18.60;35.70;;;;;;4963314;28;20437;-84
2023/01/26 13:11:50;;;;;;;3.63;3.43;;;18.60;35.60;;;;;;4960825;28;20236;-84
2023/01/26 13:14:27;;;;;;;2.97;2.77;;;18.60;35.60;;;;;;4951836;28;20953;-83
2023/01/26 13:16:52;;;;;;;2.30;2.20;;;18.60;35.70;;;;;;4956418;28;20473;-84
2023/01/26 13:19:42;;;;;;;3.50;3.30;;;18.60;35.70;;;;;;4963256;28;20937;-84
2023/01/26 13:22:16;;;;;;;3.17;2.97;;;18.60;35.60;;;;;;4948162;28;20440;-84
2023/01/26 13:24:43;;;;;;;2.80;2.60;;;18.60;35.60;;;;;;4957050;28;20452;-84
2023/01/26 13:27:26;;;;;;;3.40;3.20;;;18.60;35.60;;;;;;4947834;28;20536;-84
2023/01/26 13:29:54;;;;;;;3.27;3.07;;;18.60;35.60;;;;;;4959755;28;20441;-84
2023/01/26 13:32:19;;;;;;;2.97;2.77;;;18.70;35.70;;;;;;4946925;28;20512;-84
2023/01/26 13:34:52;;;;;;;2.63;2.43;;;18.60;35.50;;;;;;4963933;28;20449;-84
2023/01/26 13:37:37;;;;;;;2.43;2.23;;;18.70;35.70;;;;;;4962550;28;20224;-84
2023/01/26 13:40:17;;;;;;;2.73;2.63;;;18.70;35.60;;;;;;4961932;28;20585;-84
2023/01/26 13:43:09;;;;;;;2.27;2.17;;;18.70;35.60;;;;;;4964625;28;20462;-84
2023/01/26 13:45:43;;;;;;;3.00;2.80;;;18.70;35.70;;;;;;4960430;28;20441;-84
2023/01/26 13:48:15;;;;;;;3.13;2.93;;;18.70;35.70;;;;;;4964058;28;20462;-84
2023/01/26 13:50:41;;;;;;;2.90;2.70;;;18.70;35.60;;;;;;4960597;28;20512;-84